createdAt,value
2023-01-18T00:01:22.699Z,1.22
2023-01-18T00:03:51.027Z,1.25
2023-01-18T00:06:20.701Z,1.25
2023-01-18T00:08:49.028Z,1.30
2023-01-18T00:11:19.067Z,1.24
2023-01-18T00:13:48.290Z,1.21
2023-01-18T00:16:19.548Z,1.21
2023-01-18T00:18:53.460Z,1.26
2023-01-18T00:21:23.576Z,1.29
2023-01-18T00:23:52.160Z,1.27
2023-01-18T00:26:20.875Z,1.27
2023-01-18T00:28:49.134Z,1.30
2023-01-18T00:31:22.169Z,1.31
2023-01-18T00:33:51.972Z,1.27
2023-01-18T00:36:22.163Z,1.32
2023-01-18T00:38:52.345Z,1.33
2023-01-18T00:41:21.463Z,1.32
2023-01-18T00:43:49.420Z,1.33
2023-01-18T00:46:20.119Z,1.22
2023-01-18T00:48:49.227Z,1.14
2023-01-18T00:51:20.200Z,1.15
2023-01-18T00:53:50.312Z,1.27
2023-01-18T00:56:21.594Z,1.27
2023-01-18T00:58:50.591Z,1.23
2023-01-18T01:01:19.086Z,1.16
2023-01-18T01:04:05.216Z,1.25
2023-01-18T01:06:47.476Z,1.29
2023-01-18T01:09:21.687Z,1.12
2023-01-18T01:12:08.514Z,1.18
2023-01-18T01:14:56.973Z,1.21
2023-01-18T01:17:42.820Z,1.15
2023-01-18T01:20:30.024Z,1.26
2023-01-18T01:23:15.771Z,1.22
2023-01-18T01:26:03.011Z,1.21
2023-01-18T01:28:32.338Z,1.22
2023-01-18T01:31:02.132Z,1.10
2023-01-18T01:33:31.765Z,1.20
2023-01-18T01:36:02.221Z,1.14
2023-01-18T01:38:31.287Z,1.09
2023-01-18T01:41:07.483Z,1.18
2023-01-18T01:43:43.070Z,1.16
2023-01-18T01:46:23.380Z,1.22
2023-01-18T01:49:04.797Z,1.28
2023-01-18T01:51:35.627Z,1.15
2023-01-18T01:54:08.177Z,1.25
2023-01-18T01:56:38.274Z,1.23
2023-01-18T01:59:07.227Z,1.20
2023-01-18T02:01:36.218Z,1.25
2023-01-18T02:04:05.472Z,1.16
2023-01-18T02:06:38.535Z,1.12
2023-01-18T02:09:09.792Z,1.12
2023-01-18T02:11:40.501Z,1.18
2023-01-18T02:14:12.040Z,1.15
2023-01-18T02:16:57.461Z,1.18
2023-01-18T02:20:00.519Z,1.35
2023-01-18T02:22:46.197Z,1.15
2023-01-18T02:26:17.925Z,1.18
2023-01-18T02:28:55.164Z,1.17
2023-01-18T02:31:28.253Z,1.16
2023-01-18T02:34:05.518Z,1.27
2023-01-18T02:36:43.239Z,1.27
2023-01-18T02:39:23.274Z,1.21
2023-01-18T02:42:16.385Z,1.10
2023-01-18T02:45:05.553Z,1.14
2023-01-18T02:47:35.270Z,1.10
2023-01-18T02:50:05.002Z,1.25
2023-01-18T02:52:41.130Z,1.20
2023-01-18T02:55:18.106Z,1.15
2023-01-18T02:57:47.695Z,1.27
2023-01-18T03:00:20.668Z,1.31
2023-01-18T03:02:51.688Z,1.21
2023-01-18T03:05:20.508Z,1.16
2023-01-18T03:07:54.703Z,1.22
2023-01-18T03:10:25.745Z,1.10
2023-01-18T03:13:00.176Z,1.05
2023-01-18T03:15:40.425Z,1.11
2023-01-18T03:18:19.106Z,1.02
2023-01-18T03:20:54.503Z,1.11
2023-01-18T03:23:39.983Z,1.09
2023-01-18T03:26:11.526Z,1.14
2023-01-18T03:29:01.575Z,1.13
2023-01-18T03:31:56.526Z,0.99
2023-01-18T03:34:30.115Z,1.10
2023-01-18T03:37:02.809Z,1.08
2023-01-18T03:39:36.198Z,1.15
2023-01-18T03:42:12.301Z,1.15
2023-01-18T03:44:49.004Z,1.14
2023-01-18T03:47:18.912Z,1.14
2023-01-18T03:49:47.522Z,1.11
2023-01-18T03:52:20.167Z,1.17
2023-01-18T03:55:01.104Z,1.04
2023-01-18T03:57:36.308Z,1.24
2023-01-18T04:00:06.836Z,1.15
2023-01-18T04:02:44.708Z,1.15
2023-01-18T04:05:13.823Z,1.12
2023-01-18T04:07:42.392Z,1.20
2023-01-18T04:10:13.050Z,1.17
2023-01-18T04:12:41.313Z,1.26
2023-01-18T04:15:11.145Z,1.17
2023-01-18T04:17:40.967Z,1.27
2023-01-18T04:20:11.321Z,1.10
2023-01-18T04:22:39.633Z,1.29
2023-01-18T04:25:08.961Z,1.14
2023-01-18T04:27:37.319Z,1.03
2023-01-18T04:30:07.008Z,1.08
2023-01-18T04:32:35.347Z,1.20
2023-01-18T04:35:05.754Z,1.24
2023-01-18T04:37:34.550Z,1.28
2023-01-18T04:40:03.105Z,1.22
2023-01-18T04:42:31.528Z,1.10
2023-01-18T04:45:01.032Z,1.12
2023-01-18T04:47:30.062Z,1.25
2023-01-18T04:49:58.533Z,1.19
2023-01-18T04:52:32.180Z,1.29
2023-01-18T04:55:00.631Z,1.23
2023-01-18T04:57:28.967Z,1.17
2023-01-18T04:59:57.267Z,1.24
2023-01-18T05:02:25.702Z,1.23
2023-01-18T05:04:54.107Z,1.11
2023-01-18T05:07:30.651Z,1.09
2023-01-18T05:09:59.017Z,1.14
2023-01-18T05:12:27.487Z,1.08
2023-01-18T05:14:55.958Z,1.10
2023-01-18T05:17:27.465Z,1.02
2023-01-18T05:19:56.280Z,1.09
2023-01-18T05:22:25.618Z,1.17
2023-01-18T05:24:55.788Z,1.15
2023-01-18T05:27:24.162Z,1.17
2023-01-18T05:29:52.882Z,1.12
2023-01-18T05:32:21.217Z,1.04
2023-01-18T05:34:49.616Z,1.08
2023-01-18T05:37:18.104Z,1.10
2023-01-18T05:39:46.436Z,1.16
2023-01-18T05:42:16.111Z,1.56
2023-01-18T05:44:44.469Z,1.79
2023-01-18T05:47:13.029Z,1.88
2023-01-18T05:49:42.052Z,2.07
2023-01-18T05:52:10.501Z,2.13
2023-01-18T05:54:38.849Z,2.24
2023-01-18T05:57:07.145Z,2.30
2023-01-18T05:59:36.820Z,2.09
2023-01-18T06:02:05.566Z,2.17
2023-01-18T06:04:34.046Z,1.78
2023-01-18T06:07:02.384Z,1.60
2023-01-18T06:09:30.996Z,1.49
2023-01-18T06:11:59.422Z,1.33
2023-01-18T06:14:27.701Z,1.36
2023-01-18T06:16:57.380Z,1.47
2023-01-18T06:19:25.812Z,1.49
2023-01-18T06:21:54.453Z,1.47
2023-01-18T06:24:22.811Z,1.39
2023-01-18T06:26:51.130Z,1.29
2023-01-18T06:29:19.594Z,1.25
2023-01-18T06:31:48.006Z,1.22
2023-01-18T06:34:18.026Z,1.29
2023-01-18T06:36:46.398Z,1.30
2023-01-18T06:39:14.818Z,1.28
2023-01-18T06:41:43.116Z,1.31
2023-01-18T06:44:11.928Z,1.31
2023-01-18T06:46:40.308Z,1.27
2023-01-18T06:49:08.882Z,1.38
2023-01-18T06:51:38.946Z,1.21
2023-01-18T06:54:08.222Z,1.12
2023-01-18T06:56:36.991Z,1.11
2023-01-18T06:59:07.662Z,1.24
2023-01-18T07:01:36.854Z,1.24
2023-01-18T07:04:06.018Z,1.18
2023-01-18T07:06:36.609Z,1.22
2023-01-18T07:09:08.158Z,1.28
2023-01-18T07:11:36.996Z,1.26
2023-01-18T07:14:05.329Z,1.19
2023-01-18T07:16:33.694Z,1.09
2023-01-18T07:19:02.004Z,1.17
2023-01-18T07:21:30.469Z,1.26
2023-01-18T07:24:00.398Z,1.19
2023-01-18T07:26:30.149Z,1.15
2023-01-18T07:28:58.590Z,1.23
2023-01-18T07:31:27.629Z,1.25
2023-01-18T07:33:56.037Z,1.31
2023-01-18T07:36:24.375Z,1.26
2023-01-18T07:38:52.759Z,1.32
2023-01-18T07:41:23.071Z,1.30
2023-01-18T07:43:54.396Z,1.22
2023-01-18T07:46:23.612Z,1.26
2023-01-18T07:48:52.624Z,1.24
2023-01-18T07:51:22.671Z,1.31
2023-01-18T07:53:55.278Z,1.37
2023-01-18T07:56:25.276Z,1.44
2023-01-18T07:58:55.703Z,1.38
2023-01-18T08:01:25.379Z,1.38
2023-01-18T08:03:54.737Z,1.43
2023-01-18T08:06:25.846Z,1.43
2023-01-18T08:08:56.691Z,1.52
2023-01-18T08:11:25.052Z,1.40
2023-01-18T08:13:54.795Z,1.37
2023-01-18T08:16:24.442Z,1.49
2023-01-18T08:18:52.848Z,1.51
2023-01-18T08:21:21.400Z,1.56
2023-01-18T08:23:51.465Z,1.56
2023-01-18T08:26:19.884Z,1.53
2023-01-18T08:28:48.306Z,1.48
2023-01-18T08:31:22.214Z,1.60
2023-01-18T08:33:51.109Z,1.64
2023-01-18T08:36:22.042Z,1.53
2023-01-18T08:38:51.283Z,1.51
2023-01-18T08:41:20.828Z,1.60
2023-01-18T08:43:52.454Z,1.46
2023-01-18T08:46:23.041Z,1.63
2023-01-18T08:48:52.203Z,1.61
2023-01-18T08:51:21.923Z,1.63
2023-01-18T08:53:51.507Z,1.65
2023-01-18T08:56:20.645Z,1.74
2023-01-18T08:58:49.136Z,1.83
2023-01-18T09:01:17.580Z,1.85
2023-01-18T09:03:48.804Z,1.86
2023-01-18T09:06:17.693Z,1.91
2023-01-18T09:08:49.054Z,1.97
2023-01-18T09:11:18.693Z,1.98
2023-01-18T09:14:00.369Z,2.06
2023-01-18T09:16:30.736Z,2.10
2023-01-18T09:19:01.585Z,2.16
2023-01-18T09:21:30.117Z,2.18
2023-01-18T09:23:59.659Z,2.31
2023-01-18T09:26:30.351Z,2.38
2023-01-18T09:28:58.873Z,2.22
2023-01-18T09:31:29.487Z,2.39
2023-01-18T09:34:17.688Z,2.41
2023-01-18T09:36:51.358Z,2.45
2023-01-18T09:39:20.087Z,2.37
2023-01-18T09:41:53.568Z,2.43
2023-01-18T09:44:29.915Z,2.56
2023-01-18T09:47:01.387Z,2.41
2023-01-18T09:49:37.879Z,2.43
2023-01-18T09:52:26.481Z,2.53
2023-01-18T09:55:06.643Z,2.70
2023-01-18T09:57:59.446Z,2.81
2023-01-18T10:00:31.120Z,2.74
2023-01-18T10:03:04.015Z,2.54
2023-01-18T10:05:36.619Z,2.73
2023-01-18T10:08:14.870Z,2.87
2023-01-18T10:11:07.617Z,2.99
2023-01-18T10:13:48.730Z,3.01
2023-01-18T10:16:18.066Z,3.18
2023-01-18T10:18:48.923Z,3.22
2023-01-18T10:21:29.716Z,3.37
2023-01-18T10:24:20.154Z,3.28
2023-01-18T10:26:53.744Z,3.46
2023-01-18T10:29:37.211Z,3.32
2023-01-18T10:32:10.527Z,3.50
2023-01-18T10:34:45.211Z,3.47
2023-01-18T10:37:18.762Z,3.46
2023-01-18T10:39:53.204Z,3.70
2023-01-18T10:42:25.655Z,3.74
2023-01-18T10:44:53.972Z,3.74
2023-01-18T10:47:22.447Z,3.94
2023-01-18T10:49:59.211Z,3.93
2023-01-18T10:52:30.150Z,4.16
2023-01-18T10:55:02.344Z,4.19
2023-01-18T10:57:35.137Z,4.11
2023-01-18T11:00:12.420Z,4.21
2023-01-18T11:02:43.857Z,4.35
2023-01-18T11:05:25.927Z,4.43
2023-01-18T11:08:13.927Z,4.70
2023-01-18T11:10:44.595Z,4.91
2023-01-18T11:13:27.963Z,4.65
2023-01-18T11:16:12.743Z,4.58
2023-01-18T11:19:01.303Z,4.67
2023-01-18T11:21:46.306Z,4.71
2023-01-18T11:24:18.795Z,4.43
2023-01-18T11:27:01.717Z,4.49
2023-01-18T11:29:34.015Z,4.44
2023-01-18T11:32:06.087Z,4.76
2023-01-18T11:34:38.046Z,4.85
2023-01-18T11:37:30.871Z,4.93
2023-01-18T11:39:59.198Z,5.04
2023-01-18T11:42:31.738Z,5.24
2023-01-18T11:45:16.449Z,5.01
2023-01-18T11:47:57.927Z,5.19
2023-01-18T11:50:36.893Z,5.16
2023-01-18T11:53:22.703Z,5.17
2023-01-18T11:55:56.418Z,5.04
2023-01-18T11:58:29.452Z,5.05
2023-01-18T12:01:22.065Z,4.90
2023-01-18T12:04:02.823Z,4.95
2023-01-18T12:06:43.790Z,4.95
2023-01-18T12:09:25.650Z,5.05
2023-01-18T12:12:18.624Z,4.47
2023-01-18T12:15:20.885Z,4.27
2023-01-18T12:18:13.943Z,4.54
2023-01-18T12:20:52.837Z,4.34
2023-01-18T12:23:50.239Z,4.23
2023-01-18T12:26:32.029Z,4.38
2023-01-18T12:29:36.415Z,4.11
2023-01-18T12:32:22.909Z,4.41
2023-01-18T12:35:24.833Z,4.51
2023-01-18T12:38:02.161Z,5.03
2023-01-18T12:40:49.013Z,4.98
2023-01-18T12:43:38.387Z,5.16
2023-01-18T12:46:11.254Z,5.13
2023-01-18T12:48:50.888Z,5.28
2023-01-18T12:51:23.962Z,5.38
2023-01-18T12:53:58.745Z,5.60
2023-01-18T12:56:34.142Z,5.28
2023-01-18T12:59:06.570Z,5.50
2023-01-18T13:01:42.712Z,5.33
2023-01-18T13:04:21.590Z,5.44
2023-01-18T13:06:51.600Z,5.54
2023-01-18T13:09:24.346Z,5.32
2023-01-18T13:11:53.141Z,5.34
2023-01-18T13:14:28.048Z,5.27
2023-01-18T13:17:04.747Z,5.37
2023-01-18T13:19:46.829Z,5.21
2023-01-18T13:22:26.304Z,5.17
2023-01-18T13:25:23.544Z,5.03
2023-01-18T13:28:02.091Z,4.41
2023-01-18T13:30:34.989Z,4.53
2023-01-18T13:33:14.162Z,4.09
2023-01-18T13:35:54.103Z,3.99
2023-01-18T13:38:40.282Z,3.83
2023-01-18T13:41:12.639Z,3.75
2023-01-18T13:44:03.395Z,3.89
2023-01-18T13:46:35.273Z,3.97
2023-01-18T13:49:38.085Z,4.01
2023-01-18T13:52:33.611Z,4.03
2023-01-18T13:55:06.449Z,3.97
2023-01-18T13:57:36.493Z,3.79
2023-01-18T14:00:07.602Z,3.71
2023-01-18T14:02:42.449Z,3.60
2023-01-18T14:05:25.364Z,3.56
2023-01-18T14:08:00.394Z,3.61
2023-01-18T14:10:33.539Z,3.69
2023-01-18T14:13:04.517Z,3.55
2023-01-18T14:15:49.517Z,3.52
2023-01-18T14:18:24.285Z,3.53
2023-01-18T14:21:15.283Z,3.58
2023-01-18T14:24:29.875Z,3.49
2023-01-18T14:26:59.673Z,3.53
2023-01-18T14:29:36.215Z,3.45
2023-01-18T14:32:09.085Z,3.36
2023-01-18T14:34:39.938Z,3.44
2023-01-18T14:37:31.307Z,3.48
2023-01-18T14:40:17.644Z,3.51
2023-01-18T14:42:52.244Z,3.52
2023-01-18T14:45:27.386Z,3.57
2023-01-18T14:47:57.658Z,3.53
2023-01-18T14:50:28.264Z,3.40
2023-01-18T14:52:56.803Z,3.42
2023-01-18T14:55:31.741Z,3.46
2023-01-18T14:58:11.682Z,3.40
2023-01-18T15:00:50.780Z,3.24
2023-01-18T15:03:26.301Z,3.02
2023-01-18T15:06:02.087Z,2.96
2023-01-18T15:08:34.075Z,2.94
2023-01-18T15:11:06.177Z,2.96
2023-01-18T15:13:41.585Z,2.87
2023-01-18T15:16:10.041Z,2.85
2023-01-18T15:18:38.522Z,2.96
2023-01-18T15:21:14.583Z,3.02
2023-01-18T15:23:43.499Z,3.05
2023-01-18T15:26:13.213Z,3.05
2023-01-18T15:28:41.581Z,3.13
2023-01-18T15:31:15.774Z,3.17
2023-01-18T15:33:45.148Z,3.12
2023-01-18T15:36:14.156Z,3.07
2023-01-18T15:38:42.709Z,3.10
2023-01-18T15:41:15.073Z,3.08
2023-01-18T15:43:45.515Z,3.08
2023-01-18T15:46:16.041Z,3.13
2023-01-18T15:48:51.793Z,3.06
2023-01-18T15:51:22.429Z,3.01
2023-01-18T15:53:56.426Z,3.15
2023-01-18T15:56:30.863Z,2.99
2023-01-18T15:59:02.181Z,2.96
2023-01-18T16:01:35.052Z,2.92
2023-01-18T16:04:19.142Z,2.96
2023-01-18T16:06:47.533Z,2.98
2023-01-18T16:09:23.119Z,2.85
2023-01-18T16:11:56.950Z,2.87
2023-01-18T16:14:35.020Z,3.07
2023-01-18T16:17:07.349Z,2.91
2023-01-18T16:19:38.072Z,2.80
2023-01-18T16:22:08.830Z,2.73
2023-01-18T16:24:41.128Z,2.74
2023-01-18T16:27:14.484Z,2.58
2023-01-18T16:29:45.743Z,2.53
2023-01-18T16:32:27.920Z,2.48
2023-01-18T16:34:59.980Z,2.44
2023-01-18T16:37:29.653Z,2.48
2023-01-18T16:39:58.051Z,2.53
2023-01-18T16:42:37.507Z,2.43
2023-01-18T16:45:13.835Z,2.54
2023-01-18T16:47:42.410Z,2.50
2023-01-18T16:50:15.844Z,2.41
2023-01-18T16:52:44.764Z,2.36
2023-01-18T16:55:14.443Z,2.47
2023-01-18T16:57:47.759Z,2.54
2023-01-18T17:00:19.679Z,2.39
2023-01-18T17:02:48.526Z,2.41
2023-01-18T17:05:18.192Z,2.37
2023-01-18T17:07:46.983Z,2.34
2023-01-18T17:10:23.809Z,2.43
2023-01-18T17:12:56.603Z,2.52
2023-01-18T17:15:27.706Z,2.59
2023-01-18T17:17:56.162Z,2.38
2023-01-18T17:20:27.294Z,2.38
2023-01-18T17:23:06.599Z,2.41
2023-01-18T17:25:35.113Z,2.29
2023-01-18T17:28:05.194Z,2.30
2023-01-18T17:30:38.918Z,2.28
2023-01-18T17:33:07.394Z,2.26
2023-01-18T17:35:38.789Z,2.16
2023-01-18T17:38:12.006Z,2.08
2023-01-18T17:40:50.608Z,2.19
2023-01-18T17:43:36.558Z,2.12
2023-01-18T17:46:06.488Z,2.08
2023-01-18T17:48:35.208Z,2.08
2023-01-18T17:51:06.840Z,2.00
2023-01-18T17:53:35.414Z,1.97
2023-01-18T17:56:08.791Z,1.85
2023-01-18T17:58:39.128Z,1.84
2023-01-18T18:01:11.493Z,1.82
2023-01-18T18:03:41.003Z,1.77
2023-01-18T18:06:11.136Z,1.75
2023-01-18T18:08:39.720Z,1.70
2023-01-18T18:11:09.730Z,1.69
2023-01-18T18:13:42.080Z,1.84
2023-01-18T18:16:18.293Z,1.85
2023-01-18T18:18:47.122Z,1.84
2023-01-18T18:21:15.734Z,1.91
2023-01-18T18:23:46.681Z,2.02
2023-01-18T18:26:15.032Z,2.05
2023-01-18T18:28:44.778Z,1.98
2023-01-18T18:31:16.043Z,2.00
2023-01-18T18:33:44.503Z,1.86
2023-01-18T18:36:12.947Z,2.01
2023-01-18T18:38:41.308Z,1.89
2023-01-18T18:41:10.022Z,1.86
2023-01-18T18:43:38.428Z,1.80
2023-01-18T18:46:08.484Z,1.68
2023-01-18T18:48:36.936Z,1.60
2023-01-18T18:51:05.542Z,1.64
2023-01-18T18:53:39.224Z,1.61
2023-01-18T18:56:10.682Z,1.57
2023-01-18T18:58:39.896Z,1.52
2023-01-18T19:01:21.704Z,1.52
2023-01-18T19:03:50.993Z,1.56
2023-01-18T19:06:21.701Z,1.75
2023-01-18T19:08:50.786Z,1.63
2023-01-18T19:11:19.883Z,1.70
2023-01-18T19:13:49.657Z,1.71
2023-01-18T19:16:19.743Z,1.82
2023-01-18T19:18:48.282Z,1.85
2023-01-18T19:21:16.766Z,1.72
2023-01-18T19:23:45.121Z,1.85
2023-01-18T19:26:13.705Z,1.85
2023-01-18T19:28:42.200Z,1.75
2023-01-18T19:31:11.842Z,1.77
2023-01-18T19:33:41.649Z,1.72
2023-01-18T19:36:13.265Z,1.78
2023-01-18T19:38:46.133Z,1.73
2023-01-18T19:41:15.753Z,1.75
2023-01-18T19:43:44.558Z,1.75
2023-01-18T19:46:15.377Z,1.70
2023-01-18T19:48:45.607Z,1.73
2023-01-18T19:51:22.485Z,1.69
2023-01-18T19:53:53.328Z,1.64
2023-01-18T19:56:22.389Z,1.54
2023-01-18T19:58:50.845Z,1.55
2023-01-18T20:01:35.366Z,1.54
2023-01-18T20:04:07.797Z,1.51
2023-01-18T20:06:38.723Z,1.43
2023-01-18T20:09:18.581Z,1.45
2023-01-18T20:11:48.223Z,1.32
2023-01-18T20:14:18.340Z,1.29
2023-01-18T20:16:46.876Z,1.34
2023-01-18T20:19:19.307Z,1.28
2023-01-18T20:21:47.989Z,1.26
2023-01-18T20:24:16.901Z,1.14
2023-01-18T20:26:45.589Z,0.96
2023-01-18T20:29:14.087Z,0.99
2023-01-18T20:31:46.595Z,1.00
2023-01-18T20:34:20.210Z,0.96
2023-01-18T20:36:50.173Z,0.99
2023-01-18T20:39:19.236Z,0.92
2023-01-18T20:41:48.791Z,1.00
2023-01-18T20:44:17.536Z,0.93
2023-01-18T20:46:47.440Z,1.01
2023-01-18T20:49:16.109Z,1.01
2023-01-18T20:51:45.846Z,0.99
2023-01-18T20:54:14.304Z,0.98
2023-01-18T20:56:42.719Z,0.90
2023-01-18T20:59:11.148Z,0.80
2023-01-18T21:01:39.608Z,0.77
2023-01-18T21:04:08.048Z,0.78
2023-01-18T21:06:36.569Z,0.89
2023-01-18T21:09:07.104Z,0.92
2023-01-18T21:11:35.501Z,1.00
2023-01-18T21:14:04.109Z,1.02
2023-01-18T21:16:32.863Z,0.92
2023-01-18T21:19:01.322Z,0.94
2023-01-18T21:21:31.873Z,0.92
2023-01-18T21:24:00.970Z,0.90
2023-01-18T21:26:30.830Z,0.92
2023-01-18T21:29:00.129Z,0.84
2023-01-18T21:31:28.714Z,0.82
2023-01-18T21:33:57.160Z,0.69
2023-01-18T21:36:25.607Z,0.67
2023-01-18T21:38:54.021Z,0.55
2023-01-18T21:41:40.283Z,0.60
2023-01-18T21:44:30.179Z,0.54
2023-01-18T21:46:58.876Z,0.56
2023-01-18T21:50:15.388Z,0.54
2023-01-18T21:52:50.703Z,0.57
2023-01-18T21:55:19.332Z,0.54
2023-01-18T21:58:08.446Z,0.46
2023-01-18T22:00:39.879Z,0.42
2023-01-18T22:03:09.662Z,0.21
2023-01-18T22:05:40.960Z,0.28
2023-01-18T22:08:10.361Z,0.32
2023-01-18T22:10:38.733Z,0.31
2023-01-18T22:13:07.283Z,0.34
2023-01-18T22:15:35.749Z,0.42
2023-01-18T22:18:06.969Z,0.35
2023-01-18T22:20:35.352Z,0.43
2023-01-18T22:23:03.693Z,0.52
2023-01-18T22:25:32.036Z,0.44
2023-01-18T22:28:00.940Z,0.25
2023-01-18T22:30:29.663Z,0.19
2023-01-18T22:32:58.152Z,0.09
2023-01-18T22:35:27.973Z,0.12
2023-01-18T22:37:56.708Z,-0.13
2023-01-18T22:40:25.086Z,-0.30
2023-01-18T22:42:53.422Z,-0.21
2023-01-18T22:45:21.788Z,-0.21
2023-01-18T22:47:50.208Z,0.08
2023-01-18T22:50:19.394Z,0.11
2023-01-18T22:52:49.149Z,-0.01
2023-01-18T22:55:17.698Z,0.07
2023-01-18T22:57:46.088Z,-0.02
2023-01-18T23:00:15.750Z,-0.22
2023-01-18T23:02:44.089Z,-0.12
2023-01-18T23:05:12.664Z,-0.15
2023-01-18T23:07:40.971Z,0.06
2023-01-18T23:10:11.486Z,0.02
2023-01-18T23:12:39.807Z,0.04
2023-01-18T23:15:27.772Z,0.05
2023-01-18T23:17:56.289Z,0.17
2023-01-18T23:20:24.652Z,0.04
2023-01-18T23:22:53.059Z,-0.09
2023-01-18T23:25:22.835Z,-0.04
2023-01-18T23:27:51.235Z,-0.09
2023-01-18T23:30:20.298Z,-0.10
2023-01-18T23:32:48.780Z,-0.07
2023-01-18T23:35:17.358Z,-0.11
2023-01-18T23:37:45.636Z,-0.29
2023-01-18T23:40:31.902Z,-0.27
2023-01-18T23:43:19.066Z,-0.30
2023-01-18T23:46:05.190Z,-0.31
2023-01-18T23:48:51.152Z,-0.13
2023-01-18T23:51:37.546Z,-0.11
2023-01-18T23:54:18.759Z,-0.11
2023-01-18T23:56:48.635Z,-0.28
2023-01-18T23:59:18.456Z,-0.27
